Time;durP1;ratioP1;P1;durP2;ratioP2;P2;SDS_P1;SDS_P2;PMS_P1;PMS_P2;Temp;Humidity;BMP_temperature;BMP_pressure;BME280_temperature;BME280_humidity;BME280_pressure;Samples;Min_cycle;Max_cycle;Signal;HPM_P1;HPM_P2
2021/12/13 00:00:40;;;;;;;15.07;10.15;;;;;;;0.44;94.71;100705.63;6156870;23;20015;-81
2021/12/13 00:03:11;;;;;;;16.17;10.25;;;;;;;0.40;94.66;100701.22;6181024;23;20056;-81
2021/12/13 00:05:47;;;;;;;16.17;10.80;;;;;;;0.33;95.61;100704.53;6182719;23;20124;-82
2021/12/13 00:08:20;;;;;;;16.27;10.68;;;;;;;0.37;95.63;100701.91;6182893;23;20020;-82
2021/12/13 00:10:52;;;;;;;16.52;10.68;;;;;;;0.32;95.34;100689.34;6182996;23;20040;-82
2021/12/13 00:13:26;;;;;;;18.08;10.85;;;;;;;0.32;95.70;100688.53;6182541;23;20439;-82
2021/12/13 00:15:59;;;;;;;16.73;10.50;;;;;;;0.29;95.74;100686.50;6181571;23;20047;-82
2021/12/13 00:18:31;;;;;;;17.30;11.23;;;;;;;0.27;96.04;100694.25;6182200;23;20009;-82
2021/12/13 00:21:07;;;;;;;17.48;10.93;;;;;;;0.23;95.86;100696.91;6182094;23;20056;-81
2021/12/13 00:23:49;;;;;;;18.48;10.85;;;;;;;0.21;96.32;100701.09;6182028;23;20168;-81
2021/12/13 00:26:34;;;;;;;19.55;11.60;;;;;;;0.32;96.29;100711.16;6183819;23;20013;-82
2021/12/13 00:29:12;;;;;;;17.23;11.30;;;;;;;0.38;96.06;100711.69;6181976;23;20359;-82
2021/12/13 00:32:04;;;;;;;18.80;10.85;;;;;;;0.42;95.88;100720.75;6183489;23;20079;-82
2021/12/13 00:34:38;;;;;;;18.45;11.80;;;;;;;0.44;95.65;100713.03;6182110;23;20039;-82
2021/12/13 00:37:12;;;;;;;17.80;11.82;;;;;;;0.43;95.65;100722.34;6183425;23;20445;-82
2021/12/13 00:39:45;;;;;;;;;;;;;;;0.41;96.13;100735.53;6182804;23;20009;-83
2021/12/13 00:42:11;;;;;;;18.60;11.85;;;;;;;0.33;96.19;100729.09;6157331;23;19912;-83
2021/12/13 00:44:42;;;;;;;19.35;11.80;;;;;;;0.32;96.42;100724.03;6183578;23;20035;-83
2021/12/13 00:47:13;;;;;;;19.10;11.48;;;;;;;0.36;96.46;100727.63;6181942;23;20013;-83
2021/12/13 00:49:41;;;;;;;18.13;11.77;;;;;;;0.38;96.49;100730.78;6182023;23;20013;-83
2021/12/13 00:52:07;;;;;;;18.02;11.07;;;;;;;0.36;95.98;100720.25;6183300;23;20013;-84
2021/12/13 00:54:39;;;;;;;19.20;10.43;;;;;;;0.50;95.31;100730.69;6183427;23;20017;-84
2021/12/13 00:57:19;;;;;;;18.75;11.48;;;;;;;0.53;95.37;100735.44;6181594;23;20010;-83
2021/12/13 00:59:58;;;;;;;20.58;12.77;;;;;;;0.54;95.45;100745.22;6181385;23;20383;-81
2021/12/13 01:02:31;;;;;;;18.45;11.40;;;;;;;0.53;95.25;100737.41;6181757;23;20462;-81
2021/12/13 01:05:06;;;;;;;20.48;12.13;;;;;;;0.49;95.22;100737.28;6182845;23;20028;-82
2021/12/13 01:07:56;;;;;;;18.63;11.40;;;;;;;0.47;95.23;100723.22;6183494;23;20013;-81
2021/12/13 01:10:52;;;;;;;17.50;11.93;;;;;;;0.44;95.34;100734.84;6183034;23;20112;-82
2021/12/13 01:13:31;;;;;;;20.70;11.90;;;;;;;0.40;95.14;100739.44;6182639;23;20064;-81
2021/12/13 01:22:22;;;;;;;20.48;11.68;;;;;;;0.35;95.69;100736.94;6159647;23;20079;-84
2021/12/13 01:27:37;;;;;;;19.55;12.35;;;;;;;0.33;95.38;100728.31;6181912;23;20473;-83
2021/12/13 01:30:07;;;;;;;21.95;13.18;;;;;;;0.32;95.37;100732.22;6182857;23;20495;-83
2021/12/13 01:32:38;;;;;;;20.63;12.63;;;;;;;0.24;95.65;100730.44;6183026;23;20005;-83
2021/12/13 01:35:09;;;;;;;19.20;11.57;;;;;;;0.20;95.80;100724.91;6182768;23;20064;-83
2021/12/13 01:37:35;;;;;;;20.23;11.43;;;;;;;0.20;95.80;100735.81;6182967;23;20019;-83
2021/12/13 01:40:13;;;;;;;18.30;11.57;;;;;;;0.17;96.31;100741.16;6181379;23;20092;-83
2021/12/13 01:42:39;;;;;;;17.40;11.23;;;;;;;0.16;96.70;100748.56;6183092;23;20013;-83
2021/12/13 01:45:14;;;;;;;17.55;11.07;;;;;;;0.10;96.86;100732.78;6182605;23;20086;-83
2021/12/13 01:47:44;;;;;;;18.70;12.02;;;;;;;0.00;97.43;100736.84;6181468;23;20395;-83
2021/12/13 01:50:21;;;;;;;18.13;12.05;;;;;;;-0.06;97.68;100730.81;6181100;23;20009;-84
2021/12/13 01:52:49;;;;;;;19.52;12.25;;;;;;;-0.12;97.73;100745.84;6182375;23;20068;-83
2021/12/13 01:55:26;;;;;;;18.63;12.30;;;;;;;-0.11;98.10;100747.44;6183054;23;20017;-83
2021/12/13 01:58:21;;;;;;;20.52;12.20;;;;;;;-0.15;98.50;100746.53;6181487;23;20100;-83
2021/12/13 02:01:09;;;;;;;20.63;12.18;;;;;;;-0.13;98.81;100748.94;6181128;23;20124;-83
2021/12/13 02:04:00;;;;;;;19.08;12.05;;;;;;;-0.19;99.26;100740.19;6160408;23;20451;-83
2021/12/13 02:06:49;;;;;;;19.35;12.00;;;;;;;-0.17;99.55;100732.47;6182736;23;20071;-83
2021/12/13 02:09:24;;;;;;;22.40;12.55;;;;;;;-0.21;99.99;100720.69;6181070;23;20013;-83
2021/12/13 02:11:55;;;;;;;21.27;12.63;;;;;;;-0.06;99.54;100728.09;6182601;23;20013;-83
2021/12/13 02:14:25;;;;;;;22.77;13.35;;;;;;;-0.06;99.44;100714.47;6182957;23;20112;-83
2021/12/13 02:17:10;;;;;;;21.77;12.75;;;;;;;0.04;99.02;100734.19;6182801;23;20009;-84
2021/12/13 02:20:00;;;;;;;20.67;13.10;;;;;;;0.11;98.50;100731.66;6181283;23;20017;-84
2021/12/13 02:22:26;;;;;;;20.17;12.85;;;;;;;0.19;98.13;100726.03;6181198;23;20025;-83
2021/12/13 02:24:54;;;;;;;21.38;13.27;;;;;;;0.24;97.95;100719.53;6182790;23;20088;-84
2021/12/13 02:27:24;;;;;;;20.48;13.27;;;;;;;0.25;97.83;100721.09;6183023;23;20012;-83
2021/12/13 02:29:51;;;;;;;19.55;12.77;;;;;;;0.29;97.81;100711.06;6182239;23;20430;-83
2021/12/13 02:32:16;;;;;;;19.42;13.27;;;;;;;0.30;98.04;100713.44;6183113;23;20239;-84
2021/12/13 02:34:42;;;;;;;19.27;12.77;;;;;;;0.31;98.07;100708.78;6182705;23;20052;-81
2021/12/13 02:37:10;;;;;;;21.67;13.45;;;;;;;0.38;97.41;100704.28;6180828;23;20328;-83
2021/12/13 02:39:47;;;;;;;21.20;13.02;;;;;;;0.39;97.92;100707.81;6182452;23;20112;-83
2021/12/13 02:42:15;;;;;;;20.08;13.02;;;;;;;0.38;97.81;100698.03;6182318;23;20020;-83
2021/12/13 02:44:45;;;;;;;18.88;12.10;;;;;;;0.47;97.96;100702.19;6182692;23;20001;-83
2021/12/13 02:47:33;;;;;;;21.45;12.75;;;;;;;0.61;97.22;100690.03;6181845;23;20091;-84
2021/12/13 02:49:59;;;;;;;20.77;12.32;;;;;;;0.64;97.24;100690.09;6184322;23;20017;-83
2021/12/13 02:52:25;;;;;;;19.73;12.18;;;;;;;0.68;97.20;100680.06;6184693;23;20012;-84
2021/12/13 02:55:04;;;;;;;17.30;10.80;;;;;;;0.80;97.57;100690.09;6184296;23;20096;-83
2021/12/13 02:57:38;;;;;;;15.13;9.68;;;;;;;0.99;97.57;100702.97;6184706;23;20099;-83
2021/12/13 03:00:32;;;;;;;16.67;10.85;;;;;;;1.10;97.23;100687.59;6182944;23;20025;-83
2021/12/13 03:03:00;;;;;;;17.55;10.20;;;;;;;1.26;96.44;100700.06;6182701;23;20021;-84
2021/12/13 03:05:33;;;;;;;15.00;9.40;;;;;;;1.35;96.19;100702.59;6183007;23;20013;-83
2021/12/13 03:08:07;;;;;;;15.23;9.68;;;;;;;1.40;95.98;100697.66;6182730;23;20497;-84
2021/12/13 03:10:37;;;;;;;14.18;9.23;;;;;;;1.45;96.16;100690.31;6184557;23;20375;-84
2021/12/13 03:13:03;;;;;;;16.45;8.98;;;;;;;1.58;95.75;100689.03;6184387;23;20079;-83
2021/12/13 03:15:31;;;;;;;14.15;8.38;;;;;;;1.66;95.66;100688.00;6158364;23;20017;-83
2021/12/13 03:18:05;;;;;;;14.32;8.93;;;;;;;1.69;95.45;100679.88;6183951;23;20488;-84
2021/12/13 03:20:49;;;;;;;13.80;8.32;;;;;;;1.71;95.08;100683.03;6182774;23;20063;-83
2021/12/13 03:23:40;;;;;;;15.18;9.60;;;;;;;1.72;95.11;100684.63;6184593;23;20116;-84
2021/12/13 03:26:20;;;;;;;15.05;9.27;;;;;;;1.70;95.05;100686.91;6184549;23;20092;-84
2021/12/13 03:28:55;;;;;;;14.10;9.00;;;;;;;1.68;95.36;100672.81;6184564;23;20088;-83
2021/12/13 03:31:26;;;;;;;15.40;9.85;;;;;;;1.68;95.67;100678.28;6183035;23;20478;-83
2021/12/13 03:34:04;;;;;;;14.55;9.85;;;;;;;1.70;95.20;100689.63;6183845;23;20447;-84
2021/12/13 03:36:48;;;;;;;12.93;7.60;;;;;;;1.78;95.01;100687.84;6184450;23;20133;-84
2021/12/13 03:39:19;;;;;;;13.18;9.18;;;;;;;1.72;95.14;100692.81;6182943;23;20020;-84
2021/12/13 03:41:48;;;;;;;12.38;8.27;;;;;;;1.77;95.48;100700.75;6184241;23;20016;-83
2021/12/13 03:44:17;;;;;;;14.82;8.95;;;;;;;1.73;95.25;100691.66;6184387;23;20001;-84
2021/12/13 03:46:45;;;;;;;14.13;9.55;;;;;;;1.77;95.65;100702.69;6184438;23;20012;-83
2021/12/13 03:49:11;;;;;;;14.77;8.80;;;;;;;1.78;95.55;100699.56;6182827;23;20013;-83
2021/12/13 03:51:40;;;;;;;15.20;9.15;;;;;;;1.78;96.15;100699.56;6184152;23;20005;-84
2021/12/13 03:54:07;;;;;;;12.85;8.57;;;;;;;1.83;96.33;100696.53;6184126;23;20020;-83
2021/12/13 03:56:39;;;;;;;12.02;8.90;;;;;;;1.84;96.71;100698.13;6184098;23;20506;-84
2021/12/13 03:59:08;;;;;;;13.73;8.88;;;;;;;1.92;97.57;100703.72;6183638;23;20493;-83
2021/12/13 04:01:43;;;;;;;12.77;8.05;;;;;;;1.97;97.79;100697.97;6183818;23;20013;-84
2021/12/13 04:04:14;;;;;;;13.10;8.30;;;;;;;1.92;97.73;100699.06;6182394;23;20017;-84
2021/12/13 04:06:45;;;;;;;13.35;9.10;;;;;;;1.91;97.63;100699.41;6183342;23;20657;-83
2021/12/13 04:09:12;;;;;;;15.38;9.32;;;;;;;1.94;97.27;100713.19;6183949;23;20013;-84
2021/12/13 04:11:41;;;;;;;15.75;9.77;;;;;;;1.87;97.67;100708.34;6183502;23;20013;-81
2021/12/13 04:14:12;;;;;;;15.18;10.18;;;;;;;1.84;97.67;100720.00;6182158;23;20015;-81
2021/12/13 04:17:02;;;;;;;15.98;9.60;;;;;;;1.80;97.84;100710.94;6183864;23;20443;-81
2021/12/13 04:19:38;;;;;;;16.33;10.00;;;;;;;1.76;98.47;100725.72;6183968;23;20013;-81
2021/12/13 04:22:04;;;;;;;15.63;9.80;;;;;;;1.77;98.21;100725.34;6183567;23;20020;-81
2021/12/13 04:24:32;;;;;;;14.13;10.40;;;;;;;1.74;98.67;100731.53;6182611;23;20047;-81
2021/12/13 04:27:02;;;;;;;15.25;10.18;;;;;;;1.72;98.48;100714.69;6183461;23;20017;-81
2021/12/13 04:29:36;;;;;;;15.68;10.23;;;;;;;1.64;97.81;100715.72;6182654;23;20021;-81
2021/12/13 04:32:21;;;;;;;13.90;9.70;;;;;;;1.62;97.82;100712.53;6183657;23;20009;-81
2021/12/13 04:34:51;;;;;;;14.45;10.45;;;;;;;1.65;98.04;100727.44;6183688;23;20025;-81
2021/12/13 04:37:20;;;;;;;16.02;10.45;;;;;;;1.59;97.94;100709.72;6182269;23;20020;-81
2021/12/13 04:39:51;;;;;;;15.43;10.32;;;;;;;1.59;98.32;100720.66;6183798;23;20013;-80
2021/12/13 04:42:18;;;;;;;15.52;10.80;;;;;;;1.56;98.75;100718.66;6183744;23;20013;-81
2021/12/13 04:44:50;;;;;;;16.05;10.40;;;;;;;1.55;98.84;100717.84;6183595;23;20009;-81
2021/12/13 04:47:19;;;;;;;15.38;10.10;;;;;;;1.47;99.11;100707.13;6157474;23;20395;-81
2021/12/13 04:49:49;;;;;;;17.88;10.65;;;;;;;1.48;99.16;100715.00;6182443;23;20021;-83
2021/12/13 04:52:17;;;;;;;16.23;10.13;;;;;;;1.52;99.58;100710.38;6181737;23;20009;-84
2021/12/13 04:54:50;;;;;;;16.40;10.90;;;;;;;1.45;99.90;100718.44;6182326;23;20402;-83
2021/12/13 04:57:17;;;;;;;16.00;10.55;;;;;;;1.43;100.00;100720.72;6183221;23;20036;-83
2021/12/13 04:59:53;;;;;;;14.15;10.25;;;;;;;1.45;100.00;100721.19;6183847;23;20012;-84
2021/12/13 05:02:20;;;;;;;13.82;9.77;;;;;;;1.46;100.00;100724.72;6183168;23;20013;-84
2021/12/13 05:04:50;;;;;;;16.20;10.25;;;;;;;1.37;100.00;100716.72;6183159;23;20013;-83
2021/12/13 05:07:17;;;;;;;14.25;9.88;;;;;;;1.44;100.00;100722.31;6183381;23;20447;-81
2021/12/13 05:09:46;;;;;;;17.75;10.48;;;;;;;1.42;100.00;100719.13;6181965;23;20121;-81
2021/12/13 05:12:14;;;;;;;16.73;11.35;;;;;;;1.39;100.00;100711.66;6181356;23;20584;-81
2021/12/13 05:15:04;;;;;;;17.63;10.98;;;;;;;1.45;100.00;100718.44;6183396;23;20017;-81
2021/12/13 05:17:41;;;;;;;16.13;10.57;;;;;;;1.45;100.00;100718.44;6183368;23;20021;-81
2021/12/13 05:20:22;;;;;;;18.60;11.35;;;;;;;1.43;100.00;100720.72;6183363;23;20017;-81
2021/12/13 05:22:57;;;;;;;16.17;10.73;;;;;;;1.45;100.00;100707.50;6183439;23;20013;-81
2021/12/13 05:25:50;;;;;;;16.75;11.10;;;;;;;1.39;100.00;100706.19;6182250;23;20009;-81
2021/12/13 05:28:28;;;;;;;17.23;11.70;;;;;;;1.48;100.00;100719.66;6180406;23;20021;-81
2021/12/13 05:31:00;;;;;;;18.88;11.70;;;;;;;1.52;100.00;100718.59;6180131;23;20009;-81
2021/12/13 05:33:28;;;;;;;17.75;12.05;;;;;;;1.58;100.00;100722.59;6181950;23;20017;-81
2021/12/13 05:35:57;;;;;;;16.63;12.30;;;;;;;1.62;100.00;100728.94;6182082;23;20020;-81
2021/12/13 05:38:22;;;;;;;18.13;12.77;;;;;;;1.66;100.00;100724.34;6181293;23;20035;-81
2021/12/13 05:40:48;;;;;;;17.42;12.38;;;;;;;1.62;100.00;100704.31;6181996;23;20084;-81
2021/12/13 05:43:32;;;;;;;17.92;11.68;;;;;;;1.74;100.00;100734.25;6180949;23;20031;-81
2021/12/13 05:46:08;;;;;;;16.90;12.20;;;;;;;1.78;100.00;100740.59;6180091;23;20446;-81
2021/12/13 05:48:33;;;;;;;18.10;11.85;;;;;;;1.79;100.00;100733.97;6179034;23;20029;-81
2021/12/13 05:51:01;;;;;;;21.88;13.15;;;;;;;1.82;100.00;100738.72;6181987;23;20033;-81
2021/12/13 05:53:38;;;;;;;20.70;12.90;;;;;;;1.82;100.00;100738.72;6179540;23;20454;-81
2021/12/13 05:56:10;;;;;;;18.98;13.10;;;;;;;1.85;100.00;100743.50;6181823;23;20009;-81
2021/12/13 05:59:08;;;;;;;21.17;14.17;;;;;;;1.87;100.00;100740.38;6180551;23;20023;-81
2021/12/13 06:01:47;;;;;;;21.25;14.65;;;;;;;1.89;100.00;100727.13;6181474;23;20752;-81
2021/12/13 06:04:17;;;;;;;21.90;14.60;;;;;;;1.86;100.00;100744.28;6179498;23;20099;-81
2021/12/13 06:06:45;;;;;;;20.35;14.25;;;;;;;1.89;100.00;100749.03;6180026;23;20451;-81
2021/12/13 06:09:11;;;;;;;18.75;13.30;;;;;;;1.93;100.00;100754.56;6180505;23;20021;-80
2021/12/13 06:11:39;;;;;;;22.45;15.02;;;;;;;1.93;100.00;100754.56;6179606;23;20008;-80
2021/12/13 06:14:18;;;;;;;21.45;14.60;;;;;;;1.91;100.00;100754.91;6179763;23;20021;-80
2021/12/13 06:16:53;;;;;;;22.35;14.70;;;;;;;1.92;100.00;100763.91;6178987;23;20191;-80
2021/12/13 06:19:37;;;;;;;23.55;15.40;;;;;;;1.91;100.00;100749.44;6178965;23;20486;-79
2021/12/13 06:22:04;;;;;;;20.25;13.00;;;;;;;1.95;100.00;100768.66;6181833;23;20017;-79
2021/12/13 06:24:39;;;;;;;20.73;12.73;;;;;;;1.90;100.00;100763.50;6183199;23;20059;-79
2021/12/13 06:27:16;;;;;;;24.20;15.27;;;;;;;1.91;100.00;100756.84;6184449;23;20013;-78
2021/12/13 06:29:50;;;;;;;22.45;12.95;;;;;;;1.92;100.00;100766.66;6184697;23;20009;-78
2021/12/13 06:32:25;;;;;;;20.90;11.93;;;;;;;1.94;100.00;100761.63;6184651;23;20071;-78
2021/12/13 06:34:51;;;;;;;22.02;14.80;;;;;;;1.92;100.00;100772.13;6184849;23;20462;-78
2021/12/13 06:37:27;;;;;;;22.83;13.00;;;;;;;1.93;100.00;100771.78;6183182;23;20044;-78
2021/12/13 06:40:13;;;;;;;25.05;15.90;;;;;;;1.92;100.00;100769.38;6184697;23;20013;-79
2021/12/13 06:42:38;;;;;;;24.70;15.05;;;;;;;1.91;100.00;100767.78;6183145;23;20017;-79
2021/12/13 06:45:23;;;;;;;26.23;17.40;;;;;;;1.90;100.00;100771.72;6184484;23;20038;-78
2021/12/13 06:47:51;;;;;;;19.83;10.93;;;;;;;1.90;100.00;100777.97;6183632;23;20013;-78
2021/12/13 06:50:42;;;;;;;25.15;16.52;;;;;;;1.90;100.00;100788.13;6180517;23;20094;-78
2021/12/13 06:53:17;;;;;;;25.25;15.00;;;;;;;1.90;100.00;100788.13;6173549;23;20029;-78
2021/12/13 06:55:43;;;;;;;23.88;14.65;;;;;;;1.87;100.00;100795.88;6183994;23;20024;-78
2021/12/13 06:58:24;;;;;;;26.63;16.85;;;;;;;1.83;100.00;100786.81;6183344;23;20059;-78
2021/12/13 07:00:53;;;;;;;28.33;18.10;;;;;;;1.82;100.00;100792.66;6183370;23;20017;-78
2021/12/13 07:03:23;;;;;;;28.33;18.15;;;;;;;1.83;100.00;100795.03;6180266;23;20027;-79
2021/12/13 07:05:53;;;;;;;30.50;17.42;;;;;;;1.82;100.00;100793.44;6183405;23;20469;-78
2021/12/13 07:08:28;;;;;;;26.50;18.08;;;;;;;1.82;100.00;100793.44;6182000;23;20382;-78
2021/12/13 07:10:57;;;;;;;28.88;17.33;;;;;;;1.82;100.00;100792.66;6182555;23;20379;-78
2021/12/13 07:13:36;;;;;;;31.20;19.35;;;;;;;1.81;100.00;100796.53;6184506;23;20055;-79
2021/12/13 07:16:13;;;;;;;29.92;17.77;;;;;;;1.82;100.00;100792.66;6183058;23;20013;-78
2021/12/13 07:18:44;;;;;;;30.88;19.58;;;;;;;1.80;100.00;100784.81;6184571;23;20024;-87
2021/12/13 07:21:24;;;;;;;31.10;19.50;;;;;;;1.85;100.00;100792.72;6183118;23;20024;-78
2021/12/13 07:23:53;;;;;;;29.00;18.48;;;;;;;1.88;100.00;100818.56;6184229;23;20097;-78
2021/12/13 07:26:37;;;;;;;32.97;18.23;;;;;;;1.89;100.00;100809.22;6184063;23;20438;-78
2021/12/13 07:29:09;;;;;;;26.40;15.60;;;;;;;1.90;100.00;100810.00;6182683;23;20208;-78
2021/12/13 07:31:35;;;;;;;31.13;18.35;;;;;;;1.92;100.00;100818.63;6183034;23;20021;-78
2021/12/13 07:34:18;;;;;;;31.75;20.33;;;;;;;1.92;100.00;100813.16;6183649;23;20018;-79
2021/12/13 07:36:52;;;;;;;28.98;17.05;;;;;;;1.93;100.00;100806.53;6183075;23;20447;-78
2021/12/13 07:39:18;;;;;;;28.67;16.20;;;;;;;1.92;100.00;100802.22;6184081;23;20330;-78
2021/12/13 07:41:53;;;;;;;28.58;16.77;;;;;;;1.95;100.00;100785.88;6182893;23;20009;-78
2021/12/13 07:44:31;;;;;;;29.70;17.00;;;;;;;2.01;100.00;100787.19;6182578;23;20359;-78
2021/12/13 07:47:05;;;;;;;30.90;17.58;;;;;;;2.02;100.00;100779.75;6184299;23;20123;-78
2021/12/13 07:49:40;;;;;;;32.35;19.52;;;;;;;2.08;100.00;100783.78;6184164;23;20092;-78
2021/12/13 07:52:06;;;;;;;26.48;16.42;;;;;;;2.13;100.00;100780.75;6182375;23;20009;-79
2021/12/13 07:54:41;;;;;;;24.40;15.10;;;;;;;2.13;100.00;100765.13;6182568;23;20012;-78
2021/12/13 07:57:17;;;;;;;24.60;14.48;;;;;;;2.21;100.00;100782.47;6157342;23;20013;-79
2021/12/13 07:59:43;;;;;;;26.60;15.77;;;;;;;2.24;100.00;100782.53;6182714;23;20451;-89
2021/12/13 08:02:19;;;;;;;28.52;16.98;;;;;;;2.23;100.00;100774.69;6182520;23;20116;-88
2021/12/13 08:04:54;;;;;;;25.08;14.55;;;;;;;2.29;100.00;100784.19;6183802;23;20017;-87
2021/12/13 08:07:27;;;;;;;27.13;16.33;;;;;;;2.30;100.00;100781.09;6182698;23;20009;-89
2021/12/13 08:09:56;;;;;;;26.88;16.50;;;;;;;2.32;100.00;100783.47;6184047;23;20013;-90
2021/12/13 08:12:34;;;;;;;25.80;16.50;;;;;;;2.29;100.00;100774.03;6182692;23;20390;-89
2021/12/13 08:15:20;;;;;;;22.30;12.75;;;;;;;2.37;100.00;100774.94;6184137;23;20012;-88
2021/12/13 08:17:50;;;;;;;23.83;15.75;;;;;;;2.43;100.00;100794.63;6184069;23;20103;-88
2021/12/13 08:20:41;;;;;;;19.58;12.68;;;;;;;2.45;100.00;100798.56;6183707;23;20018;-78
2021/12/13 08:23:15;;;;;;;21.85;14.07;;;;;;;2.46;100.00;100793.88;6182469;23;20575;-78
2021/12/13 08:25:41;;;;;;;22.52;14.48;;;;;;;2.56;100.00;100810.50;6182488;23;20023;-79
2021/12/13 08:28:10;;;;;;;20.90;14.68;;;;;;;2.60;100.00;100818.78;6132793;23;20088;-79
2021/12/13 08:30:52;;;;;;;21.50;14.82;;;;;;;2.63;100.00;100829.78;6182245;23;20020;-78
2021/12/13 08:33:39;;;;;;;20.92;13.00;;;;;;;2.65;100.00;100835.72;6183897;23;20530;-78
2021/12/13 08:36:13;;;;;;;18.42;12.13;;;;;;;2.70;100.00;100845.56;6183812;23;20356;-88
2021/12/13 08:39:01;;;;;;;21.42;12.52;;;;;;;2.67;100.00;100832.63;6183813;23;20084;-78
2021/12/13 08:41:29;;;;;;;16.60;11.68;;;;;;;2.75;100.00;100857.00;6183641;23;20021;-78
2021/12/13 08:44:10;;;;;;;18.08;12.82;;;;;;;2.81;100.00;100868.47;6183300;23;20396;-78
2021/12/13 08:46:40;;;;;;;18.58;12.98;;;;;;;2.83;100.00;100866.94;6182259;23;20013;-78
2021/12/13 08:49:16;;;;;;;18.10;13.02;;;;;;;2.88;100.00;100870.53;6181837;23;20059;-78
2021/12/13 08:51:53;;;;;;;19.23;12.65;;;;;;;2.85;100.00;100854.84;6183807;23;20097;-78
2021/12/13 08:54:21;;;;;;;18.52;12.80;;;;;;;2.93;100.00;100878.47;6183298;23;20096;-78
2021/12/13 08:56:50;;;;;;;17.25;11.80;;;;;;;2.94;100.00;100871.81;6183948;23;20406;-89
2021/12/13 08:59:24;;;;;;;54.85;32.40;;;;;;;2.91;100.00;100858.88;6183381;23;20100;-88
2021/12/13 09:02:07;;;;;;;23.77;16.58;;;;;;;2.96;100.00;100874.97;6182177;23;20033;-90
2021/12/13 09:04:58;;;;;;;19.60;13.02;;;;;;;2.96;100.00;100877.72;6183458;23;20387;-90
2021/12/13 09:07:24;;;;;;;19.70;13.43;;;;;;;2.95;100.00;100870.69;6183131;23;20101;-87
2021/12/13 09:09:50;;;;;;;16.95;11.38;;;;;;;2.96;100.00;100875.78;6181491;23;20090;-88
2021/12/13 09:12:42;;;;;;;15.48;11.48;;;;;;;2.93;100.00;100876.50;6183424;23;20428;-87
2021/12/13 09:15:19;;;;;;;18.38;11.38;;;;;;;3.00;100.00;100898.56;6182987;23;20020;-90
2021/12/13 09:17:46;;;;;;;15.32;10.63;;;;;;;2.94;100.00;100880.84;6183717;23;20009;-87
2021/12/13 09:20:23;;;;;;;13.93;10.50;;;;;;;2.98;100.00;100881.69;6181549;23;20001;-91
2021/12/13 09:22:53;;;;;;;16.73;11.52;;;;;;;3.00;100.00;100878.56;6181988;23;20461;-90
2021/12/13 09:25:28;;;;;;;15.57;11.25;;;;;;;3.02;100.00;100887.25;6183256;23;20012;-90
2021/12/13 09:28:19;;;;;;;15.90;11.25;;;;;;;3.02;100.00;100877.06;6183394;23;20040;-90
2021/12/13 09:30:56;;;;;;;15.77;10.75;;;;;;;3.01;100.00;100869.19;6183596;23;20021;-88
2021/12/13 09:33:31;;;;;;;14.60;10.18;;;;;;;3.04;100.00;100879.44;6181999;23;20028;-80
2021/12/13 09:36:11;;;;;;;12.40;9.30;;;;;;;3.07;100.00;100870.50;6181765;23;20021;-79
2021/12/13 09:38:55;;;;;;;14.32;10.65;;;;;;;3.11;100.00;100869.41;6183354;23;20016;-81
2021/12/13 09:41:27;;;;;;;;;;;;;;;3.11;100.00;100863.91;6183552;23;20037;-80
2021/12/13 09:44:02;;;;;;;13.20;9.98;;;;;;;3.14;100.00;100874.16;6181582;23;19959;-80
2021/12/13 09:46:39;;;;;;;16.02;10.60;;;;;;;3.13;100.00;100860.78;6181404;23;20375;-81
2021/12/13 09:49:20;;;;;;;16.15;10.82;;;;;;;3.20;100.00;100871.88;6183116;23;20101;-80
2021/12/13 09:51:52;;;;;;;16.75;11.45;;;;;;;3.24;100.00;100873.50;6183436;23;20064;-81
2021/12/13 09:54:27;;;;;;;13.88;10.40;;;;;;;3.19;100.00;100859.34;6182889;23;20106;-78
2021/12/13 09:56:53;;;;;;;15.63;11.23;;;;;;;3.17;100.00;100878.88;6182996;23;20020;-80
2021/12/13 09:59:29;;;;;;;14.02;10.85;;;;;;;3.13;100.00;100877.25;6182622;23;20015;-78
2021/12/13 10:01:58;;;;;;;15.73;11.40;;;;;;;3.18;100.00;100877.72;6181743;23;20020;-80
2021/12/13 10:04:34;;;;;;;15.50;11.07;;;;;;;3.18;100.00;100880.47;6182648;23;20439;-80
2021/12/13 10:07:04;;;;;;;14.85;10.65;;;;;;;3.20;100.00;100885.56;6183135;23;20036;-80
2021/12/13 10:09:37;;;;;;;11.90;8.95;;;;;;;3.23;100.00;100876.63;6182804;23;20085;-81
2021/12/13 10:12:25;;;;;;;12.40;8.90;;;;;;;3.27;100.00;100882.97;6157075;23;20348;-88
2021/12/13 10:14:58;;;;;;;12.52;8.60;;;;;;;3.28;100.00;100879.03;6183099;23;20055;-91
2021/12/13 10:17:30;;;;;;;12.30;9.13;;;;;;;3.30;100.00;100884.97;6181352;23;20009;-90
2021/12/13 10:19:58;;;;;;;11.80;8.50;;;;;;;3.29;100.00;100886.13;6156789;23;20348;-91
2021/12/13 10:22:26;;;;;;;12.18;8.40;;;;;;;3.31;100.00;100883.03;6181371;23;20017;-91
2021/12/13 10:24:57;;;;;;;11.38;7.97;;;;;;;3.31;100.00;100867.38;6181537;23;20550;-91
2021/12/13 10:27:24;;;;;;;10.60;7.32;;;;;;;3.34;100.00;100888.56;6181414;23;20013;-92
2021/12/13 10:29:53;;;;;;;10.85;7.88;;;;;;;3.38;100.00;100883.94;6182932;23;20440;-91
2021/12/13 10:32:29;;;;;;;9.52;7.13;;;;;;;3.40;100.00;100889.06;6181355;23;20009;-85
2021/12/13 10:34:59;;;;;;;9.35;6.95;;;;;;;3.40;100.00;100881.59;6183113;23;20533;-91
2021/12/13 10:37:29;;;;;;;8.90;7.07;;;;;;;3.30;100.00;100876.75;6181567;23;20092;-91
2021/12/13 10:40:00;;;;;;;11.43;8.27;;;;;;;3.26;100.00;100881.38;6181451;23;20017;-91
2021/12/13 10:42:30;;;;;;;11.20;8.43;;;;;;;3.28;100.00;100866.13;6182820;23;20009;-90
2021/12/13 10:44:57;;;;;;;13.68;8.90;;;;;;;3.34;100.00;100883.06;6181554;23;20009;-91
2021/12/13 10:47:35;;;;;;;12.63;9.07;;;;;;;3.33;100.00;100886.97;6182975;23;20037;-91
2021/12/13 10:50:04;;;;;;;11.65;8.48;;;;;;;3.32;100.00;100870.91;6181108;23;20009;-91
2021/12/13 10:52:35;;;;;;;13.65;9.50;;;;;;;3.31;100.00;100872.06;6182762;23;20024;-90
2021/12/13 10:55:09;;;;;;;12.55;9.50;;;;;;;3.29;100.00;100881.44;6181353;23;20016;-91
2021/12/13 10:57:43;;;;;;;14.32;9.70;;;;;;;3.26;100.00;100881.38;6181512;23;20067;-90
2021/12/13 11:00:12;;;;;;;11.23;8.30;;;;;;;3.28;100.00;100873.56;6182638;23;20014;-90
2021/12/13 11:02:39;;;;;;;13.65;9.38;;;;;;;3.29;100.00;100875.94;6182705;23;20044;-91
2021/12/13 11:05:17;;;;;;;13.48;8.95;;;;;;;3.28;100.00;100868.09;6181295;23;20088;-91
2021/12/13 11:07:43;;;;;;;14.45;9.65;;;;;;;3.27;100.00;100867.31;6181991;23;20013;-78
2021/12/13 11:10:13;;;;;;;12.30;9.25;;;;;;;3.30;100.00;100871.25;6184836;23;20013;-91
2021/12/13 11:12:42;;;;;;;13.65;9.52;;;;;;;3.33;100.00;100866.97;6184749;23;20346;-90
2021/12/13 11:15:16;;;;;;;11.88;9.13;;;;;;;3.34;100.00;100872.09;6184387;23;20545;-91
2021/12/13 11:17:42;;;;;;;11.73;8.55;;;;;;;3.38;100.00;100872.16;6183309;23;20024;-91
2021/12/13 11:20:12;;;;;;;11.70;8.82;;;;;;;3.39;100.00;100868.28;6157852;23;20009;-88
2021/12/13 11:22:38;;;;;;;12.27;9.38;;;;;;;3.41;100.00;100874.97;6158350;23;20016;-89
2021/12/13 11:25:09;;;;;;;11.35;8.65;;;;;;;3.40;100.00;100876.09;6184598;23;20136;-89
2021/12/13 11:27:35;;;;;;;12.57;9.00;;;;;;;3.39;100.00;100869.06;6183278;23;20017;-92
2021/12/13 11:30:11;;;;;;;10.80;8.60;;;;;;;3.42;100.00;100873.00;6184413;23;20009;-91
2021/12/13 11:32:39;;;;;;;11.27;8.05;;;;;;;3.47;100.00;100870.75;6184708;23;20009;-91
2021/12/13 11:35:11;;;;;;;10.57;7.78;;;;;;;3.48;100.00;100869.56;6184530;23;20021;-90
2021/12/13 11:38:16;;;;;;;10.32;7.97;;;;;;;3.49;100.00;100868.41;6184480;23;20512;-89
2021/12/13 11:41:03;;;;;;;10.85;7.85;;;;;;;3.48;100.00;100869.56;6158162;23;20044;-89
2021/12/13 11:43:52;;;;;;;11.13;7.45;;;;;;;3.47;100.00;100869.97;6184137;23;20017;-89
2021/12/13 11:46:55;;;;;;;10.98;8.10;;;;;;;3.45;100.00;100864.84;6183878;23;20020;-89
2021/12/13 11:49:46;;;;;;;11.00;8.43;;;;;;;3.50;100.00;100852.75;6184605;23;20436;-89
2021/12/13 11:52:42;;;;;;;10.07;7.72;;;;;;;3.54;100.00;100867.31;6184367;23;20051;-90
2021/12/13 11:55:29;;;;;;;9.43;7.68;;;;;;;3.52;100.00;100866.91;6184947;23;20390;-87